createdAt,value
2022-10-28T00:02:34.000Z,9.66
2022-10-28T00:07:34.000Z,9.12
2022-10-28T00:12:35.000Z,9.11
2022-10-28T00:17:34.000Z,9.71
2022-10-28T00:22:34.000Z,8.36
2022-10-28T00:27:35.000Z,9.17
2022-10-28T00:32:34.000Z,9.18
2022-10-28T00:37:35.000Z,9.43
2022-10-28T00:42:34.000Z,8.43
2022-10-28T00:47:35.000Z,9.51
2022-10-28T00:52:34.000Z,9.51
2022-10-28T00:57:35.000Z,9.42
2022-10-28T01:02:35.000Z,9.81
2022-10-28T01:07:35.000Z,9.18
2022-10-28T01:12:35.000Z,8.94
2022-10-28T01:17:34.000Z,9.25
2022-10-28T01:22:35.000Z,9.18
2022-10-28T01:27:34.000Z,9.76
2022-10-28T01:32:35.000Z,9.79
2022-10-28T01:37:35.000Z,10.1
2022-10-28T01:42:35.000Z,9.97
2022-10-28T01:47:34.000Z,10.6
2022-10-28T01:52:35.000Z,10
2022-10-28T01:57:34.000Z,10.33
2022-10-28T02:02:34.000Z,10.85
2022-10-28T02:07:35.000Z,10.85
2022-10-28T02:12:35.000Z,11.15
2022-10-28T02:17:34.000Z,10.14
2022-10-28T02:22:35.000Z,10.53
2022-10-28T02:27:34.000Z,10.66
2022-10-28T02:32:35.000Z,10.31
2022-10-28T02:37:34.000Z,11.21
2022-10-28T02:42:35.000Z,10.73
2022-10-28T02:47:35.000Z,10.6
2022-10-28T02:57:34.000Z,10.86
2022-10-28T03:02:35.000Z,10.49
2022-10-28T03:07:34.000Z,9.96
2022-10-28T03:12:34.000Z,10.05
2022-10-28T03:17:35.000Z,9.85
2022-10-28T03:27:35.000Z,10.21
2022-10-28T03:32:34.000Z,9.71
2022-10-28T03:42:35.000Z,9.56
2022-10-28T03:47:34.000Z,9.25
2022-10-28T03:52:35.000Z,9.74
2022-10-28T03:57:35.000Z,9.56
2022-10-28T04:02:35.000Z,9.83
2022-10-28T04:07:35.000Z,9.89
2022-10-28T04:12:34.000Z,10.42
2022-10-28T04:17:34.000Z,10.22
2022-10-28T04:22:35.000Z,10.22
2022-10-28T04:27:34.000Z,9.55
2022-10-28T04:32:35.000Z,8.82
2022-10-28T04:37:35.000Z,9.24
2022-10-28T04:42:35.000Z,9.22
2022-10-28T04:52:34.000Z,9.27
2022-10-28T04:57:35.000Z,9.15
2022-10-28T05:02:35.000Z,9.64
2022-10-28T05:07:35.000Z,10.38
2022-10-28T05:12:35.000Z,10.23
2022-10-28T05:17:34.000Z,9.28
2022-10-28T05:22:34.000Z,10.55
2022-10-28T05:27:34.000Z,9.7
2022-10-28T05:32:35.000Z,10.39
2022-10-28T05:37:34.000Z,10.31
2022-10-28T05:42:35.000Z,9.89
2022-10-28T05:47:34.000Z,9.89
2022-10-28T05:52:34.000Z,9.93
2022-10-28T05:57:34.000Z,10.68
2022-10-28T06:02:34.000Z,11.22
2022-10-28T06:07:35.000Z,10.72
2022-10-28T06:17:34.000Z,12.05
2022-10-28T06:22:35.000Z,12.27
2022-10-28T06:27:34.000Z,11.86
2022-10-28T06:32:35.000Z,11.25
2022-10-28T06:37:34.000Z,11.2
2022-10-28T06:42:34.000Z,10.84
2022-10-28T06:47:35.000Z,10.98
2022-10-28T06:52:35.000Z,11.52
2022-10-28T06:57:39.000Z,11.52
2022-10-28T07:02:35.000Z,11.16
2022-10-28T07:12:35.000Z,10.6
2022-10-28T07:17:34.000Z,10.85
2022-10-28T07:22:35.000Z,10.78
2022-10-28T07:27:35.000Z,11.18
2022-10-28T07:32:35.000Z,11.52
2022-10-28T07:37:35.000Z,11.52
2022-10-28T07:42:34.000Z,11.11
2022-10-28T07:47:35.000Z,12.05
2022-10-28T07:52:34.000Z,12.15
2022-10-28T07:57:34.000Z,13.04
2022-10-28T08:02:35.000Z,13.09
2022-10-28T08:07:34.000Z,13.17
2022-10-28T08:12:34.000Z,14.73
2022-10-28T08:17:35.000Z,14.93
2022-10-28T08:22:35.000Z,15.03
2022-10-28T08:27:35.000Z,15.72
2022-10-28T08:32:34.000Z,15.73
2022-10-28T08:37:35.000Z,16.2
2022-10-28T08:42:35.000Z,16.45
2022-10-28T08:47:34.000Z,16.12
2022-10-28T08:52:35.000Z,17.74
2022-10-28T08:57:35.000Z,17.74
2022-10-28T09:02:35.000Z,17.8
2022-10-28T09:07:34.000Z,17.75
2022-10-28T09:12:35.000Z,17.47
2022-10-28T09:17:35.000Z,16.87
2022-10-28T09:22:35.000Z,17.34
2022-10-28T09:27:35.000Z,16.9
2022-10-28T09:32:35.000Z,16.65
2022-10-28T09:42:35.000Z,17.03
2022-10-28T09:47:34.000Z,16.67
2022-10-28T09:52:34.000Z,17.59
2022-10-28T09:57:35.000Z,16.83
2022-10-28T10:02:35.000Z,16.76
2022-10-28T10:07:35.000Z,16.79
2022-10-28T10:12:34.000Z,16.57
2022-10-28T10:17:34.000Z,15.46
2022-10-28T10:22:35.000Z,16.23
2022-10-28T10:27:35.000Z,17.24
2022-10-28T10:32:35.000Z,18.3
2022-10-28T10:37:34.000Z,18.21
2022-10-28T10:42:35.000Z,17
2022-10-28T10:47:34.000Z,17
2022-10-28T10:57:35.000Z,16.43
2022-10-28T11:02:35.000Z,17.38
2022-10-28T11:07:35.000Z,17.66
2022-10-28T11:12:35.000Z,18.05
2022-10-28T11:17:35.000Z,18.05
2022-10-28T11:22:35.000Z,18.26
2022-10-28T11:27:34.000Z,18.65
2022-10-28T11:32:35.000Z,18.24
2022-10-28T11:37:35.000Z,18.21
2022-10-28T11:42:35.000Z,17.87
2022-10-28T11:47:35.000Z,18.85
2022-10-28T11:52:34.000Z,19.19
2022-10-28T11:57:35.000Z,18.26
2022-10-28T12:02:35.000Z,19.59
2022-10-28T12:07:34.000Z,18.94
2022-10-28T12:12:35.000Z,19.91
2022-10-28T12:17:34.000Z,18.92
2022-10-28T12:22:34.000Z,19.23
2022-10-28T12:27:34.000Z,18.87
2022-10-28T12:32:35.000Z,18.87
2022-10-28T12:37:34.000Z,20.27
2022-10-28T12:42:35.000Z,19.3
2022-10-28T12:47:35.000Z,19.63
2022-10-28T12:52:35.000Z,19.76
2022-10-28T12:57:34.000Z,18.55
2022-10-28T13:02:35.000Z,17.54
2022-10-28T13:07:35.000Z,17.01
2022-10-28T13:12:35.000Z,16.97
2022-10-28T13:17:34.000Z,16.3
2022-10-28T13:22:35.000Z,16.53
2022-10-28T13:32:34.000Z,15.98
2022-10-28T13:37:35.000Z,13
2022-10-28T13:42:34.000Z,11.91
2022-10-28T13:47:34.000Z,11.91
2022-10-28T13:52:34.000Z,12.04
2022-10-28T13:57:34.000Z,13.38
2022-10-28T14:02:45.000Z,11.97
2022-10-28T14:07:35.000Z,11.31
2022-10-28T14:12:34.000Z,11.36
2022-10-28T14:17:35.000Z,12.31
2022-10-28T14:22:34.000Z,13.54
2022-10-28T14:27:35.000Z,13.11
2022-10-28T14:32:35.000Z,13.66
2022-10-28T14:37:38.000Z,13.08
2022-10-28T14:42:34.000Z,12.89
2022-10-28T14:47:34.000Z,12.69
2022-10-28T14:52:34.000Z,13.29
2022-10-28T14:57:39.000Z,12.87
2022-10-28T15:02:35.000Z,12.87
2022-10-28T15:07:35.000Z,14.18
2022-10-28T15:12:35.000Z,13.57
2022-10-28T15:17:34.000Z,13.34
2022-10-28T15:22:35.000Z,13.89
2022-10-28T15:27:35.000Z,13.63
2022-10-28T15:32:34.000Z,14.02
2022-10-28T15:37:34.000Z,13.67
2022-10-28T15:42:35.000Z,13.91
2022-10-28T15:47:34.000Z,13.86
2022-10-28T15:52:35.000Z,13.57
2022-10-28T15:57:35.000Z,14.18
2022-10-28T16:02:35.000Z,13.5
2022-10-28T16:07:35.000Z,14
2022-10-28T16:12:34.000Z,15.78
2022-10-28T16:17:35.000Z,15.78
2022-10-28T16:27:35.000Z,14.51
2022-10-28T16:32:35.000Z,14.15
2022-10-28T16:37:34.000Z,14.04
2022-10-28T16:42:35.000Z,14.11
2022-10-28T16:47:35.000Z,14.68
2022-10-28T16:52:35.000Z,14.54
2022-10-28T16:57:35.000Z,14.3
2022-10-28T17:02:35.000Z,14.3
2022-10-28T17:07:35.000Z,14.88
2022-10-28T17:12:34.000Z,15.78
2022-10-28T17:17:35.000Z,14.85
2022-10-28T17:22:35.000Z,15.15
2022-10-28T17:27:34.000Z,14.36
2022-10-28T17:32:35.000Z,14.77
2022-10-28T17:37:35.000Z,14.7
2022-10-28T17:42:34.000Z,15.09
2022-10-28T17:47:35.000Z,15.5
2022-10-28T17:52:35.000Z,15
2022-10-28T17:57:34.000Z,15.03
2022-10-28T18:02:35.000Z,15.51
2022-10-28T18:07:35.000Z,15.37
2022-10-28T18:12:34.000Z,15.02
2022-10-28T18:17:34.000Z,15.02
2022-10-28T18:22:35.000Z,15.93
2022-10-28T18:27:34.000Z,15.42
2022-10-28T18:32:35.000Z,15.65
2022-10-28T18:37:34.000Z,15.63
2022-10-28T18:42:34.000Z,14.88
2022-10-28T18:47:34.000Z,16.09
2022-10-28T18:52:35.000Z,15.15
2022-10-28T18:57:34.000Z,15.17
2022-10-28T19:02:35.000Z,14.63
2022-10-28T19:07:34.000Z,14.93
2022-10-28T19:12:35.000Z,15.05
2022-10-28T19:17:34.000Z,14.69
2022-10-28T19:22:35.000Z,14.44
2022-10-28T19:27:34.000Z,14.44
2022-10-28T19:37:34.000Z,14.9
2022-10-28T19:42:35.000Z,14.27
2022-10-28T19:47:35.000Z,14.27
2022-10-28T19:52:34.000Z,14.26
2022-10-28T19:57:35.000Z,13.65
2022-10-28T20:02:35.000Z,13.09
2022-10-28T20:07:34.000Z,13.21
2022-10-28T20:17:34.000Z,12.35
2022-10-28T20:22:34.000Z,13.11
2022-10-28T20:27:35.000Z,13.34
2022-10-28T20:32:34.000Z,13.64
2022-10-28T20:37:35.000Z,13.64
2022-10-28T20:42:35.000Z,13.68
2022-10-28T20:47:34.000Z,13.55
2022-10-28T20:52:35.000Z,13.46
2022-10-28T20:57:34.000Z,13.26
2022-10-28T21:02:34.000Z,13.45
2022-10-28T21:07:35.000Z,13.43
2022-10-28T21:12:34.000Z,13.27
2022-10-28T21:17:35.000Z,12.98
2022-10-28T21:22:35.000Z,13.41
2022-10-28T21:27:34.000Z,13.04
2022-10-28T21:37:34.000Z,13.6
2022-10-28T21:42:35.000Z,12.84
2022-10-28T21:47:35.000Z,13.54
2022-10-28T21:52:34.000Z,13.32
2022-10-28T21:57:35.000Z,13.5
2022-10-28T22:02:35.000Z,13.18
2022-10-28T22:07:35.000Z,12.77
2022-10-28T22:12:34.000Z,12.62
2022-10-28T22:17:34.000Z,12.62
2022-10-28T22:22:35.000Z,12.5
2022-10-28T22:27:34.000Z,11.94
2022-10-28T22:32:35.000Z,11.59
2022-10-28T22:37:35.000Z,12.03
2022-10-28T22:42:35.000Z,11.62
2022-10-28T22:47:34.000Z,11.68
2022-10-28T22:52:35.000Z,11.76
2022-10-28T22:57:34.000Z,12.59
2022-10-28T23:02:35.000Z,11.45
2022-10-28T23:07:35.000Z,11.76
2022-10-28T23:12:34.000Z,12.59
2022-10-28T23:17:35.000Z,13.31
2022-10-28T23:22:35.000Z,12.85
2022-10-28T23:27:35.000Z,12.85
2022-10-28T23:32:35.000Z,13.5
2022-10-28T23:37:34.000Z,13.98
2022-10-28T23:42:35.000Z,13.99
2022-10-28T23:47:34.000Z,13.47
2022-10-28T23:52:35.000Z,13.36
2022-10-28T23:57:35.000Z,13.89
